createdAt,value
2023-05-25T16:02:17.096Z,139.33
2023-05-25T16:03:49.380Z,125.33
2023-05-25T16:05:21.705Z,135.67
2023-05-25T16:06:54.093Z,121.67
2023-05-25T16:08:26.510Z,128.33
2023-05-25T16:09:58.622Z,119.00
2023-05-25T16:11:32.145Z,121.50
2023-05-25T16:13:04.292Z,116.75
2023-05-25T16:14:36.319Z,118.25
2023-05-25T16:16:08.434Z,120.75
2023-05-25T16:17:40.613Z,116.25
2023-05-25T16:19:14.071Z,107.25
2023-05-25T16:20:47.199Z,111.75
2023-05-25T16:22:19.767Z,107.75
2023-05-25T16:23:51.666Z,105.75
2023-05-25T16:25:23.557Z,108.25
2023-05-25T16:26:55.635Z,105.00
2023-05-25T16:28:28.108Z,100.25
2023-05-25T16:30:00.504Z,104.00
2023-05-25T16:31:34.804Z,98.25
2023-05-25T16:33:06.835Z,97.50
2023-05-25T16:34:38.974Z,93.25
2023-05-25T16:36:13.040Z,98.50
2023-05-25T16:37:45.760Z,97.50
2023-05-25T16:39:17.835Z,99.25
2023-05-25T16:40:49.932Z,100.00
2023-05-25T16:42:25.295Z,94.25
2023-05-25T16:43:57.786Z,96.25
2023-05-25T16:45:29.883Z,90.25
2023-05-25T16:47:01.909Z,85.75
2023-05-25T16:48:33.930Z,91.00
2023-05-25T16:50:06.652Z,86.75
2023-05-25T16:51:38.655Z,88.00
2023-05-25T16:53:10.937Z,81.00
2023-05-25T16:54:42.866Z,82.00
2023-05-25T16:56:15.334Z,79.00
2023-05-25T16:57:47.318Z,78.50
2023-05-25T16:59:19.255Z,81.50
2023-05-25T17:00:51.346Z,78.60
2023-05-25T17:02:23.528Z,80.25
2023-05-25T17:03:55.778Z,66.00
2023-05-25T17:05:27.892Z,71.00
2023-05-25T17:06:59.774Z,93.00
2023-05-25T17:08:31.816Z,87.75
2023-05-25T17:10:04.221Z,85.75
2023-05-25T17:11:36.102Z,69.60
2023-05-25T17:13:08.076Z,72.60
2023-05-25T17:14:40.410Z,69.20
2023-05-25T17:16:12.935Z,77.75
2023-05-25T17:17:45.200Z,78.00
2023-05-25T17:19:17.251Z,79.00
2023-05-25T17:20:49.250Z,76.25
2023-05-25T17:22:21.971Z,76.25
2023-05-25T17:23:53.975Z,79.25
2023-05-25T17:25:26.062Z,73.00
2023-05-25T17:26:58.072Z,75.20
2023-05-25T17:28:31.404Z,72.80
2023-05-25T17:30:05.094Z,71.40
2023-05-25T17:31:37.061Z,66.20
2023-05-25T17:33:09.228Z,71.80
2023-05-25T17:34:41.621Z,64.20
2023-05-25T17:36:13.643Z,65.25
2023-05-25T17:37:45.927Z,68.75
2023-05-25T17:39:18.600Z,62.50
2023-05-25T17:40:50.977Z,65.60
2023-05-25T17:42:23.271Z,60.75
2023-05-25T17:43:55.622Z,57.75
2023-05-25T17:45:28.208Z,56.50
2023-05-25T17:47:00.218Z,57.25
2023-05-25T17:48:32.121Z,61.50
2023-05-25T17:50:05.215Z,56.75
2023-05-25T17:51:37.972Z,60.80
2023-05-25T17:53:10.345Z,64.40
2023-05-25T17:54:42.532Z,67.50
2023-05-25T17:56:14.818Z,67.80
2023-05-25T17:57:46.873Z,61.50
2023-05-25T17:59:18.863Z,63.75
2023-05-25T18:00:50.963Z,60.25
2023-05-25T18:02:23.412Z,61.25
2023-05-25T18:03:55.649Z,58.25
2023-05-25T18:05:27.910Z,61.00
2023-05-25T18:06:59.939Z,60.25
2023-05-25T18:08:31.857Z,56.75
2023-05-25T18:10:04.093Z,41.00
2023-05-25T18:11:36.900Z,53.75
2023-05-25T18:13:09.052Z,50.75
2023-05-25T18:14:40.945Z,53.75
2023-05-25T18:16:12.950Z,51.50
2023-05-25T18:17:44.868Z,54.00
2023-05-25T18:19:18.562Z,50.00
2023-05-25T18:20:51.166Z,48.75
2023-05-25T18:22:23.136Z,51.75
2023-05-25T18:23:55.088Z,51.75
2023-05-25T18:25:26.977Z,46.75
2023-05-25T18:27:03.760Z,46.50
2023-05-25T18:28:35.738Z,41.50
2023-05-25T18:30:08.355Z,47.75
2023-05-25T18:31:45.847Z,51.75
2023-05-25T18:33:17.918Z,54.25
2023-05-25T18:34:49.835Z,57.00
2023-05-25T18:36:21.717Z,56.50
2023-05-25T18:37:53.737Z,48.50
2023-05-25T18:39:26.385Z,55.50
2023-05-25T18:40:58.297Z,51.25
2023-05-25T18:42:30.317Z,53.00
2023-05-25T18:44:02.256Z,52.75
2023-05-25T18:45:34.154Z,52.50
2023-05-25T18:47:06.605Z,46.50
2023-05-25T18:48:38.583Z,52.00
2023-05-25T18:50:12.061Z,51.25
2023-05-25T18:51:44.008Z,50.50
2023-05-25T18:53:16.129Z,51.00
2023-05-25T18:54:49.040Z,52.25
2023-05-25T18:56:21.851Z,64.00
2023-05-25T18:57:54.196Z,52.75
2023-05-25T18:59:26.251Z,58.00
2023-05-25T19:00:58.151Z,54.25
2023-05-25T19:02:30.646Z,54.50
2023-05-25T19:04:02.810Z,48.00
2023-05-25T19:05:35.184Z,53.75
2023-05-25T19:07:07.492Z,58.00
2023-05-25T19:08:39.451Z,57.25
2023-05-25T19:10:11.365Z,59.00
2023-05-25T19:11:43.337Z,52.50
2023-05-25T19:13:15.185Z,56.75
2023-05-25T19:14:47.178Z,57.00
2023-05-25T19:16:19.241Z,67.50
2023-05-25T19:17:51.340Z,72.60
2023-05-25T19:19:23.252Z,75.75
2023-05-25T19:20:55.200Z,69.80
2023-05-25T19:22:27.202Z,77.40
2023-05-25T19:23:59.318Z,70.00
2023-05-25T19:25:31.348Z,70.40
2023-05-25T19:27:04.005Z,72.80
2023-05-25T19:28:36.075Z,65.25
2023-05-25T19:30:08.325Z,68.50
2023-05-25T19:31:40.269Z,62.75
2023-05-25T19:33:12.342Z,63.00
2023-05-25T19:34:44.296Z,62.75
2023-05-25T19:36:16.282Z,56.50
2023-05-25T19:37:48.178Z,57.25
2023-05-25T19:39:20.284Z,57.75
2023-05-25T19:40:52.207Z,51.00
2023-05-25T19:42:24.076Z,53.25
2023-05-25T19:43:56.021Z,44.50
2023-05-25T19:45:28.001Z,48.25
2023-05-25T19:47:00.047Z,47.25
2023-05-25T19:48:32.155Z,78.20
2023-05-25T19:50:04.380Z,63.40
2023-05-25T19:51:37.468Z,63.25
2023-05-25T19:53:09.466Z,74.80
2023-05-25T19:54:41.454Z,65.00
2023-05-25T19:56:13.446Z,57.75
2023-05-25T19:57:45.382Z,58.50
2023-05-25T19:59:17.280Z,63.25
2023-05-25T20:00:49.228Z,58.75
2023-05-25T20:02:21.647Z,54.50
2023-05-25T20:03:53.764Z,58.00
2023-05-25T20:05:25.707Z,61.75
2023-05-25T20:06:57.722Z,60.50
2023-05-25T20:08:29.615Z,58.25
2023-05-25T20:10:01.686Z,60.25
2023-05-25T20:11:33.594Z,65.67
2023-05-25T20:13:06.649Z,60.25
2023-05-25T20:14:38.556Z,68.50
2023-05-25T20:16:10.782Z,59.50
2023-05-25T20:17:42.771Z,56.50
2023-05-25T20:19:14.770Z,58.00
2023-05-25T20:20:46.797Z,59.25
2023-05-25T20:22:18.830Z,58.00
2023-05-25T20:23:51.046Z,58.50
2023-05-25T20:25:22.960Z,55.25
2023-05-25T20:26:56.999Z,58.25
2023-05-25T20:28:29.064Z,52.50
2023-05-25T20:30:00.995Z,55.50
2023-05-25T20:31:32.866Z,52.75
2023-05-25T20:33:04.861Z,59.25
2023-05-25T20:34:36.909Z,67.50
2023-05-25T20:36:08.880Z,71.75
2023-05-25T20:37:42.156Z,70.00
2023-05-25T20:39:14.224Z,68.40
2023-05-25T20:40:46.201Z,70.00
2023-05-25T20:42:18.184Z,72.80
2023-05-25T20:43:50.110Z,68.60
2023-05-25T20:45:22.070Z,69.60
2023-05-25T20:46:54.465Z,67.80
2023-05-25T20:48:26.358Z,65.60
2023-05-25T20:49:58.373Z,68.40
2023-05-25T20:51:31.359Z,59.50
2023-05-25T20:53:03.394Z,71.00
2023-05-25T20:54:36.868Z,71.00
2023-05-25T20:56:08.792Z,71.20
2023-05-25T20:57:40.770Z,67.75
2023-05-25T20:59:12.834Z,67.80
2023-05-25T21:00:46.599Z,72.40
2023-05-25T21:02:18.650Z,72.60
2023-05-25T21:03:50.967Z,72.40
2023-05-25T21:05:23.020Z,73.20
2023-05-25T21:06:54.920Z,70.60
2023-05-25T21:08:27.282Z,68.40
2023-05-25T21:10:02.924Z,65.60
2023-05-25T21:11:34.845Z,71.00
2023-05-25T21:13:06.950Z,71.00
2023-05-25T21:14:38.929Z,68.80
2023-05-25T21:16:11.052Z,67.50
2023-05-25T21:17:43.051Z,68.25
2023-05-25T21:19:15.045Z,67.50
2023-05-25T21:20:46.976Z,65.20
2023-05-25T21:22:19.055Z,66.00
2023-05-25T21:23:51.178Z,76.00
2023-05-25T21:25:23.138Z,79.25
2023-05-25T21:26:55.057Z,80.25
2023-05-25T21:28:27.023Z,80.00
2023-05-25T21:29:59.055Z,80.50
2023-05-25T21:31:30.942Z,87.75
2023-05-25T21:33:02.988Z,78.00
2023-05-25T21:34:34.955Z,73.25
2023-05-25T21:36:08.019Z,87.50
2023-05-25T21:37:40.029Z,78.00
2023-05-25T21:39:12.004Z,78.75
2023-05-25T21:40:43.999Z,75.25
2023-05-25T21:42:16.083Z,75.50
2023-05-25T21:43:48.011Z,83.25
2023-05-25T21:45:20.324Z,82.50
2023-05-25T21:46:52.236Z,84.50
2023-05-25T21:48:24.457Z,83.25
2023-05-25T21:49:56.970Z,85.75
2023-05-25T21:51:30.298Z,91.75
2023-05-25T21:53:02.209Z,86.00
2023-05-25T21:54:34.203Z,87.50
2023-05-25T21:56:06.361Z,89.25
2023-05-25T21:57:38.340Z,93.25
2023-05-25T21:59:10.226Z,82.50
2023-05-25T22:00:42.251Z,83.50
2023-05-25T22:02:14.284Z,86.00
2023-05-25T22:03:46.291Z,89.50
2023-05-25T22:05:18.264Z,79.25
2023-05-25T22:06:50.306Z,95.00
2023-05-25T22:08:22.341Z,79.00
2023-05-25T22:09:54.259Z,77.75
2023-05-25T22:11:26.236Z,84.00
2023-05-25T22:12:58.282Z,86.50
2023-05-25T22:14:30.198Z,77.25
2023-05-25T22:16:02.232Z,81.75
2023-05-25T22:17:34.422Z,85.50
2023-05-25T22:19:06.639Z,70.25
2023-05-25T22:20:39.141Z,79.00
2023-05-25T22:22:11.184Z,70.40
2023-05-25T22:23:43.188Z,75.40
2023-05-25T22:25:15.169Z,72.80
2023-05-25T22:26:47.016Z,73.00
2023-05-25T22:28:18.991Z,77.20
2023-05-25T22:29:51.131Z,69.80
2023-05-25T22:31:25.822Z,73.80
2023-05-25T22:32:57.838Z,65.60
2023-05-25T22:34:29.832Z,69.00
